Geetbets, Belgium
Current Conditions -  °F | °C
As of 11:25 PM on Thursday 23 Oct 2014 (Local Time) from EBDT Reporting Station
Overcast Overcast  
Wind Chill: 52°   Ceiling: 4500
Heat Index: 52°   Visibility: 6mi
Dew Point: 48°   Wind: 9mph
Humidity: 88%   Direction: 190°S
Pressure: 30.18"   Gusts: NA
Location:  50.89°N, 5.11°E
Report Text: EBDT 232125Z AUTO 19008KT 9999 OVC045/// 11/09 Q1022 BLU
Loading
Personal Weather Stations






























Interactive Weather Map
Tropical Storm Tracking
New forecast layout! Learn more

10-Day Weather Forecast

Advertisements
Track Severe Weather on mobile